sensor_id;sensor_type;location;lat;lon;timestamp;P1;durP1;ratioP1;P2;durP2;ratioP2
47844;SDS011;33605;48.822;8.796;2022-09-03T00:02:03;2.60;;;2.40;;
47844;SDS011;33605;48.822;8.796;2022-09-03T00:07:02;4.33;;;2.90;;
47844;SDS011;33605;48.822;8.796;2022-09-03T00:09:30;3.40;;;2.27;;
47844;SDS011;33605;48.822;8.796;2022-09-03T00:12:12;6.03;;;2.53;;
47844;SDS011;33605;48.822;8.796;2022-09-03T00:14:49;2.47;;;2.27;;
47844;SDS011;33605;48.822;8.796;2022-09-03T00:17:18;2.30;;;2.10;;
47844;SDS011;33605;48.822;8.796;2022-09-03T00:19:50;3.30;;;2.63;;
47844;SDS011;33605;48.822;8.796;2022-09-03T00:22:18;2.93;;;2.63;;
47844;SDS011;33605;48.822;8.796;2022-09-03T00:24:45;2.33;;;2.10;;
47844;SDS011;33605;48.822;8.796;2022-09-03T00:27:24;2.50;;;2.30;;
47844;SDS011;33605;48.822;8.796;2022-09-03T00:29:54;5.43;;;2.50;;
47844;SDS011;33605;48.822;8.796;2022-09-03T00:32:31;2.70;;;2.50;;
47844;SDS011;33605;48.822;8.796;2022-09-03T00:35:01;2.60;;;2.20;;
47844;SDS011;33605;48.822;8.796;2022-09-03T00:37:27;2.63;;;2.43;;
47844;SDS011;33605;48.822;8.796;2022-09-03T00:39:54;2.60;;;2.30;;
47844;SDS011;33605;48.822;8.796;2022-09-03T00:50:34;3.83;;;2.67;;
47844;SDS011;33605;48.822;8.796;2022-09-03T00:52:45;3.43;;;2.80;;
47844;SDS011;33605;48.822;8.796;2022-09-03T00:57:51;2.60;;;2.40;;
47844;SDS011;33605;48.822;8.796;2022-09-03T01:00:21;3.10;;;2.80;;
47844;SDS011;33605;48.822;8.796;2022-09-03T01:03:02;3.00;;;2.70;;
47844;SDS011;33605;48.822;8.796;2022-09-03T01:08:11;3.00;;;2.70;;
47844;SDS011;33605;48.822;8.796;2022-09-03T01:10:50;2.40;;;2.20;;
47844;SDS011;33605;48.822;8.796;2022-09-03T01:13:31;2.57;;;2.30;;
47844;SDS011;33605;48.822;8.796;2022-09-03T01:18:36;2.40;;;2.20;;
47844;SDS011;33605;48.822;8.796;2022-09-03T01:26:26;3.10;;;2.80;;
47844;SDS011;33605;48.822;8.796;2022-09-03T01:31:41;2.73;;;2.53;;
47844;SDS011;33605;48.822;8.796;2022-09-03T01:36:39;2.27;;;2.07;;
47844;SDS011;33605;48.822;8.796;2022-09-03T01:39:07;2.43;;;2.33;;
47844;SDS011;33605;48.822;8.796;2022-09-03T01:47:03;2.73;;;2.53;;
47844;SDS011;33605;48.822;8.796;2022-09-03T01:49:37;3.07;;;2.87;;
47844;SDS011;33605;48.822;8.796;2022-09-03T01:52:16;3.07;;;2.70;;
47844;SDS011;33605;48.822;8.796;2022-09-03T01:54:57;3.30;;;3.00;;
47844;SDS011;33605;48.822;8.796;2022-09-03T01:57:34;7.63;;;2.93;;
47844;SDS011;33605;48.822;8.796;2022-09-03T02:02:29;4.03;;;2.43;;
47844;SDS011;33605;48.822;8.796;2022-09-03T02:07:32;2.90;;;2.50;;
47844;SDS011;33605;48.822;8.796;2022-09-03T02:09:59;2.73;;;2.53;;
47844;SDS011;33605;48.822;8.796;2022-09-03T02:12:26;2.93;;;2.63;;
47844;SDS011;33605;48.822;8.796;2022-09-03T02:14:57;4.97;;;2.80;;
47844;SDS011;33605;48.822;8.796;2022-09-03T02:17:23;2.73;;;2.53;;
47844;SDS011;33605;48.822;8.796;2022-09-03T02:19:49;2.90;;;2.70;;
47844;SDS011;33605;48.822;8.796;2022-09-03T02:22:16;2.70;;;2.50;;
47844;SDS011;33605;48.822;8.796;2022-09-03T02:24:42;3.60;;;2.73;;
47844;SDS011;33605;48.822;8.796;2022-09-03T02:27:08;2.83;;;2.40;;
47844;SDS011;33605;48.822;8.796;2022-09-03T02:29:34;2.90;;;2.70;;
47844;SDS011;33605;48.822;8.796;2022-09-03T02:32:00;3.63;;;3.33;;
47844;SDS011;33605;48.822;8.796;2022-09-03T02:34:26;2.73;;;2.53;;
47844;SDS011;33605;48.822;8.796;2022-09-03T02:36:52;3.00;;;2.77;;
47844;SDS011;33605;48.822;8.796;2022-09-03T02:39:18;3.60;;;2.80;;
47844;SDS011;33605;48.822;8.796;2022-09-03T02:41:44;3.53;;;3.00;;
47844;SDS011;33605;48.822;8.796;2022-09-03T02:44:17;3.40;;;2.70;;
47844;SDS011;33605;48.822;8.796;2022-09-03T02:46:58;2.67;;;2.47;;
47844;SDS011;33605;48.822;8.796;2022-09-03T02:49:24;3.13;;;2.83;;
47844;SDS011;33605;48.822;8.796;2022-09-03T02:51:51;4.77;;;2.80;;
47844;SDS011;33605;48.822;8.796;2022-09-03T02:54:17;4.73;;;2.80;;
47844;SDS011;33605;48.822;8.796;2022-09-03T02:56:43;3.90;;;3.60;;
47844;SDS011;33605;48.822;8.796;2022-09-03T02:59:12;2.97;;;2.67;;
47844;SDS011;33605;48.822;8.796;2022-09-03T03:01:38;4.03;;;2.90;;
47844;SDS011;33605;48.822;8.796;2022-09-03T03:04:04;3.00;;;2.70;;
47844;SDS011;33605;48.822;8.796;2022-09-03T03:06:30;2.90;;;2.70;;
47844;SDS011;33605;48.822;8.796;2022-09-03T03:08:57;2.97;;;2.70;;
47844;SDS011;33605;48.822;8.796;2022-09-03T03:11:24;3.20;;;2.73;;
47844;SDS011;33605;48.822;8.796;2022-09-03T03:13:51;2.93;;;2.73;;
47844;SDS011;33605;48.822;8.796;2022-09-03T03:16:17;5.50;;;2.90;;
47844;SDS011;33605;48.822;8.796;2022-09-03T03:18:43;3.00;;;2.80;;
47844;SDS011;33605;48.822;8.796;2022-09-03T03:21:13;4.70;;;2.97;;
47844;SDS011;33605;48.822;8.796;2022-09-03T03:23:39;3.70;;;2.40;;
47844;SDS011;33605;48.822;8.796;2022-09-03T03:26:07;4.40;;;3.30;;
47844;SDS011;33605;48.822;8.796;2022-09-03T03:28:34;2.83;;;2.63;;
47844;SDS011;33605;48.822;8.796;2022-09-03T03:33:35;3.77;;;3.37;;
47844;SDS011;33605;48.822;8.796;2022-09-03T03:36:08;3.17;;;2.87;;
47844;SDS011;33605;48.822;8.796;2022-09-03T03:38:35;2.93;;;2.73;;
47844;SDS011;33605;48.822;8.796;2022-09-03T03:41:12;4.10;;;2.80;;
47844;SDS011;33605;48.822;8.796;2022-09-03T03:43:39;2.80;;;2.60;;
47844;SDS011;33605;48.822;8.796;2022-09-03T03:46:06;3.33;;;3.07;;
47844;SDS011;33605;48.822;8.796;2022-09-03T03:48:32;3.00;;;2.80;;
47844;SDS011;33605;48.822;8.796;2022-09-03T03:51:02;3.80;;;3.10;;
47844;SDS011;33605;48.822;8.796;2022-09-03T03:53:30;6.60;;;2.57;;
47844;SDS011;33605;48.822;8.796;2022-09-03T03:55:56;3.20;;;2.90;;
47844;SDS011;33605;48.822;8.796;2022-09-03T03:58:23;3.40;;;3.10;;
47844;SDS011;33605;48.822;8.796;2022-09-03T04:00:50;6.00;;;3.20;;
47844;SDS011;33605;48.822;8.796;2022-09-03T04:03:16;3.57;;;3.27;;
47844;SDS011;33605;48.822;8.796;2022-09-03T04:05:42;3.00;;;2.80;;
47844;SDS011;33605;48.822;8.796;2022-09-03T04:08:08;3.80;;;3.00;;
47844;SDS011;33605;48.822;8.796;2022-09-03T04:10:34;3.27;;;3.03;;
47844;SDS011;33605;48.822;8.796;2022-09-03T04:13:00;3.30;;;3.00;;
47844;SDS011;33605;48.822;8.796;2022-09-03T04:15:26;3.03;;;2.80;;
47844;SDS011;33605;48.822;8.796;2022-09-03T04:17:53;3.17;;;2.93;;
47844;SDS011;33605;48.822;8.796;2022-09-03T04:20:20;2.77;;;2.57;;
47844;SDS011;33605;48.822;8.796;2022-09-03T04:22:46;3.50;;;3.20;;
47844;SDS011;33605;48.822;8.796;2022-09-03T04:25:13;3.40;;;2.83;;
47844;SDS011;33605;48.822;8.796;2022-09-03T04:27:39;3.63;;;2.80;;
47844;SDS011;33605;48.822;8.796;2022-09-03T04:30:05;3.47;;;3.17;;
47844;SDS011;33605;48.822;8.796;2022-09-03T04:32:31;4.13;;;3.60;;
47844;SDS011;33605;48.822;8.796;2022-09-03T04:35:16;3.57;;;3.27;;
47844;SDS011;33605;48.822;8.796;2022-09-03T04:37:42;4.47;;;3.10;;
47844;SDS011;33605;48.822;8.796;2022-09-03T04:40:08;3.17;;;2.97;;
47844;SDS011;33605;48.822;8.796;2022-09-03T04:42:34;2.97;;;2.73;;
47844;SDS011;33605;48.822;8.796;2022-09-03T04:45:00;3.50;;;3.20;;
47844;SDS011;33605;48.822;8.796;2022-09-03T04:47:25;3.47;;;3.17;;
47844;SDS011;33605;48.822;8.796;2022-09-03T04:49:52;3.93;;;3.23;;
47844;SDS011;33605;48.822;8.796;2022-09-03T04:52:19;4.17;;;3.60;;
47844;SDS011;33605;48.822;8.796;2022-09-03T04:54:45;3.50;;;3.10;;
47844;SDS011;33605;48.822;8.796;2022-09-03T04:57:11;3.43;;;3.13;;
47844;SDS011;33605;48.822;8.796;2022-09-03T04:59:37;3.03;;;2.83;;
47844;SDS011;33605;48.822;8.796;2022-09-03T05:02:04;3.83;;;3.53;;
47844;SDS011;33605;48.822;8.796;2022-09-03T05:04:30;3.60;;;3.30;;
47844;SDS011;33605;48.822;8.796;2022-09-03T05:06:56;4.30;;;3.13;;
47844;SDS011;33605;48.822;8.796;2022-09-03T05:09:22;3.20;;;3.00;;
47844;SDS011;33605;48.822;8.796;2022-09-03T05:11:48;3.17;;;2.97;;
47844;SDS011;33605;48.822;8.796;2022-09-03T05:14:14;5.63;;;3.13;;
47844;SDS011;33605;48.822;8.796;2022-09-03T05:16:40;4.77;;;3.83;;
47844;SDS011;33605;48.822;8.796;2022-09-03T05:19:06;3.57;;;3.27;;
47844;SDS011;33605;48.822;8.796;2022-09-03T05:21:32;3.33;;;3.03;;
47844;SDS011;33605;48.822;8.796;2022-09-03T05:24:00;3.50;;;2.83;;
47844;SDS011;33605;48.822;8.796;2022-09-03T05:26:27;3.53;;;3.27;;
47844;SDS011;33605;48.822;8.796;2022-09-03T05:28:57;3.50;;;3.20;;
47844;SDS011;33605;48.822;8.796;2022-09-03T05:31:24;3.67;;;3.37;;
47844;SDS011;33605;48.822;8.796;2022-09-03T05:33:53;3.50;;;3.20;;
47844;SDS011;33605;48.822;8.796;2022-09-03T05:36:20;3.40;;;3.10;;
47844;SDS011;33605;48.822;8.796;2022-09-03T05:38:50;3.67;;;3.37;;
47844;SDS011;33605;48.822;8.796;2022-09-03T05:41:18;4.20;;;3.80;;
47844;SDS011;33605;48.822;8.796;2022-09-03T05:43:49;4.10;;;3.80;;
47844;SDS011;33605;48.822;8.796;2022-09-03T05:46:17;4.23;;;3.93;;
47844;SDS011;33605;48.822;8.796;2022-09-03T05:48:44;3.80;;;3.50;;
47844;SDS011;33605;48.822;8.796;2022-09-03T05:51:11;4.17;;;3.73;;
47844;SDS011;33605;48.822;8.796;2022-09-03T05:53:40;3.70;;;3.40;;
47844;SDS011;33605;48.822;8.796;2022-09-03T05:56:10;3.33;;;3.03;;
47844;SDS011;33605;48.822;8.796;2022-09-03T05:58:40;4.43;;;3.60;;
47844;SDS011;33605;48.822;8.796;2022-09-03T06:01:12;3.77;;;3.33;;
47844;SDS011;33605;48.822;8.796;2022-09-03T06:03:39;3.30;;;3.00;;
47844;SDS011;33605;48.822;8.796;2022-09-03T06:06:05;4.00;;;3.60;;
47844;SDS011;33605;48.822;8.796;2022-09-03T06:08:31;3.90;;;3.60;;
47844;SDS011;33605;48.822;8.796;2022-09-03T06:10:58;5.13;;;3.20;;
47844;SDS011;33605;48.822;8.796;2022-09-03T06:13:25;3.30;;;3.00;;
47844;SDS011;33605;48.822;8.796;2022-09-03T06:15:57;3.13;;;2.90;;
47844;SDS011;33605;48.822;8.796;2022-09-03T06:18:24;3.40;;;3.10;;
47844;SDS011;33605;48.822;8.796;2022-09-03T06:21:04;3.53;;;3.23;;
47844;SDS011;33605;48.822;8.796;2022-09-03T06:23:31;3.50;;;3.20;;
47844;SDS011;33605;48.822;8.796;2022-09-03T06:26:00;7.90;;;3.50;;
47844;SDS011;33605;48.822;8.796;2022-09-03T06:28:26;3.17;;;2.90;;
47844;SDS011;33605;48.822;8.796;2022-09-03T06:30:53;3.67;;;3.37;;
47844;SDS011;33605;48.822;8.796;2022-09-03T06:33:22;5.00;;;3.00;;
47844;SDS011;33605;48.822;8.796;2022-09-03T06:35:51;3.33;;;3.03;;
47844;SDS011;33605;48.822;8.796;2022-09-03T06:38:17;3.23;;;3.03;;
47844;SDS011;33605;48.822;8.796;2022-09-03T06:40:50;3.20;;;2.90;;
47844;SDS011;33605;48.822;8.796;2022-09-03T06:43:16;3.23;;;3.03;;
47844;SDS011;33605;48.822;8.796;2022-09-03T06:45:42;3.47;;;3.17;;
47844;SDS011;33605;48.822;8.796;2022-09-03T06:48:08;5.00;;;3.00;;
47844;SDS011;33605;48.822;8.796;2022-09-03T06:50:34;4.00;;;3.30;;
47844;SDS011;33605;48.822;8.796;2022-09-03T06:53:00;3.93;;;3.63;;
47844;SDS011;33605;48.822;8.796;2022-09-03T06:55:26;4.30;;;3.63;;
47844;SDS011;33605;48.822;8.796;2022-09-03T06:57:54;4.33;;;3.60;;
47844;SDS011;33605;48.822;8.796;2022-09-03T07:00:21;4.10;;;3.80;;
47844;SDS011;33605;48.822;8.796;2022-09-03T07:02:47;3.60;;;3.33;;
47844;SDS011;33605;48.822;8.796;2022-09-03T07:05:13;4.30;;;3.90;;
47844;SDS011;33605;48.822;8.796;2022-09-03T07:07:39;3.70;;;3.40;;
47844;SDS011;33605;48.822;8.796;2022-09-03T07:10:05;3.90;;;3.50;;
47844;SDS011;33605;48.822;8.796;2022-09-03T07:12:32;4.87;;;4.37;;
47844;SDS011;33605;48.822;8.796;2022-09-03T07:15:01;4.00;;;3.70;;
47844;SDS011;33605;48.822;8.796;2022-09-03T07:17:27;3.80;;;3.50;;
47844;SDS011;33605;48.822;8.796;2022-09-03T07:19:53;3.67;;;3.37;;
47844;SDS011;33605;48.822;8.796;2022-09-03T07:22:19;4.30;;;3.90;;
47844;SDS011;33605;48.822;8.796;2022-09-03T07:24:45;3.50;;;3.20;;
47844;SDS011;33605;48.822;8.796;2022-09-03T07:27:12;4.50;;;3.37;;
47844;SDS011;33605;48.822;8.796;2022-09-03T07:29:38;4.67;;;4.17;;
47844;SDS011;33605;48.822;8.796;2022-09-03T07:32:04;3.57;;;3.33;;
47844;SDS011;33605;48.822;8.796;2022-09-03T07:34:30;3.90;;;3.60;;
47844;SDS011;33605;48.822;8.796;2022-09-03T07:36:59;6.87;;;3.63;;
47844;SDS011;33605;48.822;8.796;2022-09-03T07:39:25;4.23;;;3.47;;
47844;SDS011;33605;48.822;8.796;2022-09-03T07:41:51;4.10;;;3.80;;
47844;SDS011;33605;48.822;8.796;2022-09-03T07:44:17;4.07;;;3.73;;
47844;SDS011;33605;48.822;8.796;2022-09-03T07:46:44;3.80;;;3.50;;
47844;SDS011;33605;48.822;8.796;2022-09-03T07:49:11;3.50;;;3.23;;
47844;SDS011;33605;48.822;8.796;2022-09-03T07:51:38;3.93;;;3.63;;
47844;SDS011;33605;48.822;8.796;2022-09-03T07:54:05;3.30;;;3.10;;
47844;SDS011;33605;48.822;8.796;2022-09-03T07:56:31;4.50;;;3.50;;
47844;SDS011;33605;48.822;8.796;2022-09-03T07:58:59;3.80;;;3.50;;
47844;SDS011;33605;48.822;8.796;2022-09-03T08:01:26;3.80;;;3.40;;
47844;SDS011;33605;48.822;8.796;2022-09-03T08:03:52;3.60;;;3.30;;
47844;SDS011;33605;48.822;8.796;2022-09-03T08:06:19;4.00;;;3.60;;
47844;SDS011;33605;48.822;8.796;2022-09-03T08:08:46;3.60;;;3.30;;
47844;SDS011;33605;48.822;8.796;2022-09-03T08:11:13;4.57;;;3.40;;
47844;SDS011;33605;48.822;8.796;2022-09-03T08:13:41;4.03;;;3.73;;
47844;SDS011;33605;48.822;8.796;2022-09-03T08:16:07;3.23;;;3.03;;
47844;SDS011;33605;48.822;8.796;2022-09-03T08:18:34;3.60;;;3.30;;
47844;SDS011;33605;48.822;8.796;2022-09-03T08:21:07;3.60;;;3.30;;
47844;SDS011;33605;48.822;8.796;2022-09-03T08:23:40;3.23;;;2.93;;
47844;SDS011;33605;48.822;8.796;2022-09-03T08:26:06;3.80;;;3.13;;
47844;SDS011;33605;48.822;8.796;2022-09-03T08:28:33;5.20;;;3.53;;
47844;SDS011;33605;48.822;8.796;2022-09-03T08:31:18;3.40;;;3.10;;
47844;SDS011;33605;48.822;8.796;2022-09-03T08:33:51;4.50;;;3.30;;
47844;SDS011;33605;48.822;8.796;2022-09-03T08:36:22;3.57;;;3.10;;
47844;SDS011;33605;48.822;8.796;2022-09-03T08:38:49;3.60;;;3.30;;
47844;SDS011;33605;48.822;8.796;2022-09-03T08:41:32;4.13;;;3.80;;
47844;SDS011;33605;48.822;8.796;2022-09-03T08:49:32;3.20;;;3.00;;
47844;SDS011;33605;48.822;8.796;2022-09-03T08:52:00;3.80;;;3.50;;
47844;SDS011;33605;48.822;8.796;2022-09-03T08:54:28;3.43;;;3.13;;
47844;SDS011;33605;48.822;8.796;2022-09-03T08:56:55;3.50;;;3.00;;
47844;SDS011;33605;48.822;8.796;2022-09-03T08:59:23;3.40;;;3.10;;
47844;SDS011;33605;48.822;8.796;2022-09-03T09:01:54;3.53;;;3.07;;
47844;SDS011;33605;48.822;8.796;2022-09-03T09:20:11;5.87;;;3.40;;
47844;SDS011;33605;48.822;8.796;2022-09-03T09:22:40;4.90;;;3.60;;
47844;SDS011;33605;48.822;8.796;2022-09-03T09:25:16;5.80;;;4.33;;
47844;SDS011;33605;48.822;8.796;2022-09-03T09:27:50;4.07;;;3.37;;
47844;SDS011;33605;48.822;8.796;2022-09-03T09:30:17;3.50;;;3.20;;
47844;SDS011;33605;48.822;8.796;2022-09-03T09:32:44;3.50;;;3.20;;
47844;SDS011;33605;48.822;8.796;2022-09-03T09:35:11;3.50;;;3.20;;
47844;SDS011;33605;48.822;8.796;2022-09-03T09:40:36;3.50;;;3.20;;
47844;SDS011;33605;48.822;8.796;2022-09-03T09:43:18;2.90;;;2.70;;
47844;SDS011;33605;48.822;8.796;2022-09-03T09:45:49;3.73;;;3.27;;
47844;SDS011;33605;48.822;8.796;2022-09-03T09:50:45;3.80;;;3.40;;
47844;SDS011;33605;48.822;8.796;2022-09-03T09:53:11;3.70;;;3.40;;
47844;SDS011;33605;48.822;8.796;2022-09-03T09:56:18;3.60;;;3.30;;
47844;SDS011;33605;48.822;8.796;2022-09-03T09:58:34;3.33;;;3.00;;
47844;SDS011;33605;48.822;8.796;2022-09-03T10:03:27;4.00;;;3.70;;
47844;SDS011;33605;48.822;8.796;2022-09-03T10:06:00;3.90;;;3.60;;
47844;SDS011;33605;48.822;8.796;2022-09-03T10:08:47;4.30;;;3.90;;
47844;SDS011;33605;48.822;8.796;2022-09-03T10:11:13;3.40;;;3.10;;
47844;SDS011;33605;48.822;8.796;2022-09-03T10:13:40;3.47;;;3.17;;
47844;SDS011;33605;48.822;8.796;2022-09-03T10:16:11;8.03;;;3.70;;
47844;SDS011;33605;48.822;8.796;2022-09-03T10:18:41;3.40;;;3.20;;
47844;SDS011;33605;48.822;8.796;2022-09-03T10:21:17;4.03;;;3.73;;
47844;SDS011;33605;48.822;8.796;2022-09-03T10:23:48;3.50;;;3.20;;
47844;SDS011;33605;48.822;8.796;2022-09-03T10:26:19;3.90;;;3.60;;
47844;SDS011;33605;48.822;8.796;2022-09-03T10:28:55;3.50;;;3.20;;
47844;SDS011;33605;48.822;8.796;2022-09-03T10:34:15;3.20;;;3.00;;
47844;SDS011;33605;48.822;8.796;2022-09-03T10:49:43;3.20;;;3.00;;
47844;SDS011;33605;48.822;8.796;2022-09-03T11:00:12;3.43;;;3.20;;
47844;SDS011;33605;48.822;8.796;2022-09-03T11:05:13;3.63;;;3.33;;
47844;SDS011;33605;48.822;8.796;2022-09-03T11:07:42;3.73;;;3.30;;
47844;SDS011;33605;48.822;8.796;2022-09-03T11:15:43;3.47;;;3.17;;
47844;SDS011;33605;48.822;8.796;2022-09-03T11:18:21;4.50;;;3.50;;
47844;SDS011;33605;48.822;8.796;2022-09-03T11:20:48;5.13;;;3.47;;
47844;SDS011;33605;48.822;8.796;2022-09-03T11:23:15;3.10;;;2.90;;
47844;SDS011;33605;48.822;8.796;2022-09-03T11:25:48;3.03;;;2.70;;
47844;SDS011;33605;48.822;8.796;2022-09-03T11:33:39;3.30;;;2.93;;
47844;SDS011;33605;48.822;8.796;2022-09-03T11:36:06;3.47;;;3.10;;
47844;SDS011;33605;48.822;8.796;2022-09-03T11:38:32;3.50;;;3.20;;
47844;SDS011;33605;48.822;8.796;2022-09-03T11:43:34;3.37;;;2.83;;
47844;SDS011;33605;48.822;8.796;2022-09-03T11:50:53;3.47;;;3.17;;
47844;SDS011;33605;48.822;8.796;2022-09-03T11:55:55;3.47;;;3.17;;
47844;SDS011;33605;48.822;8.796;2022-09-03T12:00:51;3.70;;;3.10;;
47844;SDS011;33605;48.822;8.796;2022-09-03T12:03:21;3.20;;;2.47;;
47844;SDS011;33605;48.822;8.796;2022-09-03T12:06:17;3.87;;;3.57;;
47844;SDS011;33605;48.822;8.796;2022-09-03T12:16:21;5.53;;;3.40;;
47844;SDS011;33605;48.822;8.796;2022-09-03T12:18:48;11.27;;;3.40;;
47844;SDS011;33605;48.822;8.796;2022-09-03T12:21:17;4.00;;;3.70;;
47844;SDS011;33605;48.822;8.796;2022-09-03T12:23:44;3.27;;;2.90;;
47844;SDS011;33605;48.822;8.796;2022-09-03T12:26:15;4.10;;;3.80;;
47844;SDS011;33605;48.822;8.796;2022-09-03T12:28:44;3.90;;;3.60;;
47844;SDS011;33605;48.822;8.796;2022-09-03T12:31:14;4.67;;;3.80;;
47844;SDS011;33605;48.822;8.796;2022-09-03T12:33:49;3.70;;;3.40;;
47844;SDS011;33605;48.822;8.796;2022-09-03T12:36:17;3.23;;;2.87;;
47844;SDS011;33605;48.822;8.796;2022-09-03T12:38:43;3.90;;;3.03;;
47844;SDS011;33605;48.822;8.796;2022-09-03T12:41:21;2.77;;;2.57;;
47844;SDS011;33605;48.822;8.796;2022-09-03T12:43:49;3.00;;;2.70;;
47844;SDS011;33605;48.822;8.796;2022-09-03T12:46:15;3.10;;;2.80;;
47844;SDS011;33605;48.822;8.796;2022-09-03T12:48:54;2.07;;;1.97;;
47844;SDS011;33605;48.822;8.796;2022-09-03T12:51:20;2.30;;;2.10;;
47844;SDS011;33605;48.822;8.796;2022-09-03T12:53:47;2.00;;;1.77;;
47844;SDS011;33605;48.822;8.796;2022-09-03T12:56:15;1.90;;;1.80;;
47844;SDS011;33605;48.822;8.796;2022-09-03T12:58:57;2.63;;;2.10;;
47844;SDS011;33605;48.822;8.796;2022-09-03T13:01:26;2.33;;;1.80;;
47844;SDS011;33605;48.822;8.796;2022-09-03T13:04:01;1.90;;;1.80;;
47844;SDS011;33605;48.822;8.796;2022-09-03T13:06:30;2.80;;;2.20;;
47844;SDS011;33605;48.822;8.796;2022-09-03T13:09:01;4.03;;;1.97;;
47844;SDS011;33605;48.822;8.796;2022-09-03T13:11:28;2.23;;;1.80;;
47844;SDS011;33605;48.822;8.796;2022-09-03T13:14:01;2.27;;;1.80;;
47844;SDS011;33605;48.822;8.796;2022-09-03T13:29:28;2.37;;;1.80;;
47844;SDS011;33605;48.822;8.796;2022-09-03T13:32:09;4.17;;;1.97;;
47844;SDS011;33605;48.822;8.796;2022-09-03T13:34:51;3.20;;;2.27;;
47844;SDS011;33605;48.822;8.796;2022-09-03T13:37:33;2.90;;;2.00;;
47844;SDS011;33605;48.822;8.796;2022-09-03T13:40:08;2.57;;;2.17;;
47844;SDS011;33605;48.822;8.796;2022-09-03T13:42:41;2.23;;;2.03;;
47844;SDS011;33605;48.822;8.796;2022-09-03T13:45:19;2.07;;;1.97;;
47844;SDS011;33605;48.822;8.796;2022-09-03T13:47:47;2.20;;;1.83;;
47844;SDS011;33605;48.822;8.796;2022-09-03T13:50:38;2.20;;;2.00;;
47844;SDS011;33605;48.822;8.796;2022-09-03T13:53:12;2.13;;;1.93;;
47844;SDS011;33605;48.822;8.796;2022-09-03T13:55:45;3.13;;;2.10;;
47844;SDS011;33605;48.822;8.796;2022-09-03T13:58:28;2.43;;;2.23;;
47844;SDS011;33605;48.822;8.796;2022-09-03T14:03:42;2.70;;;2.27;;
47844;SDS011;33605;48.822;8.796;2022-09-03T14:06:23;2.57;;;2.37;;
47844;SDS011;33605;48.822;8.796;2022-09-03T14:11:49;3.07;;;2.03;;
47844;SDS011;33605;48.822;8.796;2022-09-03T14:14:33;3.73;;;2.20;;
47844;SDS011;33605;48.822;8.796;2022-09-03T14:17:09;2.70;;;2.30;;
47844;SDS011;33605;48.822;8.796;2022-09-03T14:19:52;7.00;;;2.33;;
47844;SDS011;33605;48.822;8.796;2022-09-03T14:22:21;5.00;;;2.83;;
47844;SDS011;33605;48.822;8.796;2022-09-03T14:24:51;5.20;;;2.87;;
47844;SDS011;33605;48.822;8.796;2022-09-03T14:27:22;5.50;;;2.93;;
47844;SDS011;33605;48.822;8.796;2022-09-03T14:29:50;6.10;;;3.00;;
47844;SDS011;33605;48.822;8.796;2022-09-03T14:32:21;12.53;;;3.73;;
47844;SDS011;33605;48.822;8.796;2022-09-03T14:42:44;2.70;;;2.37;;
47844;SDS011;33605;48.822;8.796;2022-09-03T14:45:43;4.30;;;2.47;;
47844;SDS011;33605;48.822;8.796;2022-09-03T14:48:14;3.20;;;2.27;;
47844;SDS011;33605;48.822;8.796;2022-09-03T14:53:36;3.20;;;2.40;;
47844;SDS011;33605;48.822;8.796;2022-09-03T14:58:46;2.40;;;2.10;;
47844;SDS011;33605;48.822;8.796;2022-09-03T15:01:17;3.07;;;2.73;;
47844;SDS011;33605;48.822;8.796;2022-09-03T15:06:16;5.40;;;2.13;;
47844;SDS011;33605;48.822;8.796;2022-09-03T15:11:18;3.77;;;2.40;;
47844;SDS011;33605;48.822;8.796;2022-09-03T15:14:08;2.93;;;2.40;;
47844;SDS011;33605;48.822;8.796;2022-09-03T15:21:35;2.77;;;2.00;;
47844;SDS011;33605;48.822;8.796;2022-09-03T15:29:37;3.60;;;2.47;;
47844;SDS011;33605;48.822;8.796;2022-09-03T15:34:57;2.10;;;1.90;;
47844;SDS011;33605;48.822;8.796;2022-09-03T15:37:27;2.23;;;2.03;;
47844;SDS011;33605;48.822;8.796;2022-09-03T15:40:02;2.87;;;2.10;;
47844;SDS011;33605;48.822;8.796;2022-09-03T15:42:30;1.97;;;1.77;;
47844;SDS011;33605;48.822;8.796;2022-09-03T15:45:01;3.87;;;1.87;;
47844;SDS011;33605;48.822;8.796;2022-09-03T15:50:27;2.13;;;1.93;;
47844;SDS011;33605;48.822;8.796;2022-09-03T15:55:43;6.90;;;2.90;;
47844;SDS011;33605;48.822;8.796;2022-09-03T15:58:21;3.33;;;2.30;;
47844;SDS011;33605;48.822;8.796;2022-09-03T16:03:15;3.97;;;2.23;;
47844;SDS011;33605;48.822;8.796;2022-09-03T16:05:48;2.87;;;2.40;;
47844;SDS011;33605;48.822;8.796;2022-09-03T16:15:57;2.60;;;1.97;;
47844;SDS011;33605;48.822;8.796;2022-09-03T16:18:31;2.80;;;2.47;;
47844;SDS011;33605;48.822;8.796;2022-09-03T16:23:30;2.67;;;2.37;;
47844;SDS011;33605;48.822;8.796;2022-09-03T16:26:02;2.57;;;2.37;;
47844;SDS011;33605;48.822;8.796;2022-09-03T16:28:38;4.33;;;2.47;;
47844;SDS011;33605;48.822;8.796;2022-09-03T16:34:01;3.33;;;2.33;;
47844;SDS011;33605;48.822;8.796;2022-09-03T16:38:59;3.50;;;2.40;;
47844;SDS011;33605;48.822;8.796;2022-09-03T16:41:28;2.97;;;2.67;;
47844;SDS011;33605;48.822;8.796;2022-09-03T16:44:00;3.23;;;2.60;;
47844;SDS011;33605;48.822;8.796;2022-09-03T16:46:40;3.40;;;2.67;;
47844;SDS011;33605;48.822;8.796;2022-09-03T16:51:55;2.53;;;2.33;;
47844;SDS011;33605;48.822;8.796;2022-09-03T16:56:58;5.47;;;2.90;;
47844;SDS011;33605;48.822;8.796;2022-09-03T17:02:17;2.67;;;2.40;;
47844;SDS011;33605;48.822;8.796;2022-09-03T17:10:20;3.63;;;2.70;;
47844;SDS011;33605;48.822;8.796;2022-09-03T17:18:11;9.43;;;3.90;;
47844;SDS011;33605;48.822;8.796;2022-09-03T17:21:00;3.30;;;3.00;;
47844;SDS011;33605;48.822;8.796;2022-09-03T17:23:42;2.70;;;2.50;;
47844;SDS011;33605;48.822;8.796;2022-09-03T17:37:07;4.10;;;2.70;;
47844;SDS011;33605;48.822;8.796;2022-09-03T17:50:52;3.07;;;2.77;;
47844;SDS011;33605;48.822;8.796;2022-09-03T17:53:21;2.97;;;2.70;;
47844;SDS011;33605;48.822;8.796;2022-09-03T17:55:58;3.27;;;2.97;;
47844;SDS011;33605;48.822;8.796;2022-09-03T17:58:27;4.00;;;2.90;;
47844;SDS011;33605;48.822;8.796;2022-09-03T18:03:26;4.00;;;2.50;;
47844;SDS011;33605;48.822;8.796;2022-09-03T18:05:57;2.90;;;2.70;;
47844;SDS011;33605;48.822;8.796;2022-09-03T18:08:47;3.03;;;2.77;;
47844;SDS011;33605;48.822;8.796;2022-09-03T18:11:19;3.23;;;2.93;;
47844;SDS011;33605;48.822;8.796;2022-09-03T18:16:32;3.13;;;2.83;;
47844;SDS011;33605;48.822;8.796;2022-09-03T18:18:59;3.83;;;2.70;;
47844;SDS011;33605;48.822;8.796;2022-09-03T18:21:27;3.80;;;3.10;;
47844;SDS011;33605;48.822;8.796;2022-09-03T18:27:03;6.80;;;3.33;;
47844;SDS011;33605;48.822;8.796;2022-09-03T18:32:39;5.27;;;3.20;;
47844;SDS011;33605;48.822;8.796;2022-09-03T18:35:23;5.83;;;2.53;;
47844;SDS011;33605;48.822;8.796;2022-09-03T18:38:09;5.10;;;2.77;;
47844;SDS011;33605;48.822;8.796;2022-09-03T18:41:05;3.90;;;3.50;;
47844;SDS011;33605;48.822;8.796;2022-09-03T18:49:29;3.13;;;2.93;;
47844;SDS011;33605;48.822;8.796;2022-09-03T19:00:40;9.53;;;3.50;;
47844;SDS011;33605;48.822;8.796;2022-09-03T19:03:32;3.60;;;3.00;;
47844;SDS011;33605;48.822;8.796;2022-09-03T19:06:25;3.43;;;2.93;;
47844;SDS011;33605;48.822;8.796;2022-09-03T19:09:22;2.80;;;2.60;;
47844;SDS011;33605;48.822;8.796;2022-09-03T19:18:08;2.63;;;2.43;;
47844;SDS011;33605;48.822;8.796;2022-09-03T19:23:58;8.03;;;3.17;;
47844;SDS011;33605;48.822;8.796;2022-09-03T19:32:17;2.40;;;2.20;;
47844;SDS011;33605;48.822;8.796;2022-09-03T19:35:06;2.70;;;2.50;;
47844;SDS011;33605;48.822;8.796;2022-09-03T19:46:32;2.30;;;2.10;;
47844;SDS011;33605;48.822;8.796;2022-09-03T19:49:29;3.30;;;2.63;;
47844;SDS011;33605;48.822;8.796;2022-09-03T19:52:24;9.77;;;2.93;;
47844;SDS011;33605;48.822;8.796;2022-09-03T19:55:15;2.80;;;2.60;;
47844;SDS011;33605;48.822;8.796;2022-09-03T19:58:01;3.97;;;2.80;;
47844;SDS011;33605;48.822;8.796;2022-09-03T20:00:46;5.53;;;2.60;;
47844;SDS011;33605;48.822;8.796;2022-09-03T20:03:31;3.70;;;3.40;;